createdAt,value
2022-08-26T00:02:14.571Z,69.84
2022-08-26T00:04:46.545Z,69.76
2022-08-26T00:07:17.492Z,69.92
2022-08-26T00:09:48.826Z,69.90
2022-08-26T00:12:21.142Z,69.78
2022-08-26T00:15:09.043Z,69.90
2022-08-26T00:17:40.423Z,69.92
2022-08-26T00:20:14.450Z,69.84
2022-08-26T00:22:46.428Z,70.01
2022-08-26T00:25:18.423Z,69.97
2022-08-26T00:27:49.401Z,70.17
2022-08-26T00:30:24.189Z,70.18
2022-08-26T00:32:58.669Z,70.39
2022-08-26T00:35:30.715Z,70.46
2022-08-26T00:38:04.834Z,70.59
2022-08-26T00:40:38.299Z,70.68
2022-08-26T00:43:10.276Z,70.70
2022-08-26T00:45:46.426Z,70.79
2022-08-26T00:48:20.944Z,71.05
2022-08-26T00:50:57.769Z,71.00
2022-08-26T00:53:33.285Z,71.17
2022-08-26T00:56:07.875Z,71.24
2022-08-26T00:58:43.110Z,71.45
2022-08-26T01:01:15.259Z,71.49
2022-08-26T01:03:47.807Z,71.66
2022-08-26T01:06:18.631Z,71.66
2022-08-26T01:08:49.495Z,71.70
2022-08-26T01:11:21.022Z,71.65
2022-08-26T01:13:54.785Z,71.71
2022-08-26T01:16:26.715Z,71.63
2022-08-26T01:19:04.270Z,71.32
2022-08-26T01:21:42.863Z,71.35
2022-08-26T01:24:14.256Z,71.30
2022-08-26T01:26:46.717Z,71.22
2022-08-26T01:29:21.985Z,71.22
2022-08-26T01:31:56.939Z,71.28
2022-08-26T01:34:30.858Z,71.23
2022-08-26T01:37:06.906Z,71.13
2022-08-26T01:39:39.339Z,71.17
2022-08-26T01:42:15.122Z,71.10
2022-08-26T01:44:50.235Z,70.95
2022-08-26T01:47:24.567Z,71.02
2022-08-26T01:49:58.006Z,71.03
2022-08-26T01:52:32.797Z,71.06
2022-08-26T01:55:04.057Z,71.06
2022-08-26T01:57:35.789Z,71.10
2022-08-26T02:00:14.329Z,70.99
2022-08-26T02:02:50.327Z,70.96
2022-08-26T02:05:23.146Z,70.76
2022-08-26T02:07:54.600Z,70.65
2022-08-26T02:10:25.389Z,70.84
2022-08-26T02:12:56.527Z,71.06
2022-08-26T02:15:28.499Z,71.38
2022-08-26T02:17:59.505Z,71.57
2022-08-26T02:20:30.959Z,71.64
2022-08-26T02:23:01.861Z,71.75
2022-08-26T02:25:41.584Z,72.07
2022-08-26T02:28:14.408Z,71.89
2022-08-26T02:30:46.780Z,72.04
2022-08-26T02:33:17.481Z,72.07
2022-08-26T02:35:50.030Z,71.86
2022-08-26T02:38:21.668Z,71.81
2022-08-26T02:40:52.810Z,71.53
2022-08-26T02:43:31.164Z,71.60
2022-08-26T02:46:02.799Z,71.29
2022-08-26T02:48:33.560Z,71.13
2022-08-26T02:51:04.482Z,71.09
2022-08-26T02:53:35.717Z,71.11
2022-08-26T02:56:08.430Z,71.05
2022-08-26T02:58:39.213Z,71.13
2022-08-26T03:01:19.803Z,71.23
2022-08-26T03:03:50.849Z,71.39
2022-08-26T03:06:23.320Z,71.55
2022-08-26T03:08:55.838Z,71.61
2022-08-26T03:11:30.949Z,71.89
2022-08-26T03:14:04.785Z,71.95
2022-08-26T03:16:37.286Z,72.24
2022-08-26T03:19:10.089Z,72.22
2022-08-26T03:21:41.168Z,72.35
2022-08-26T03:24:12.906Z,72.23
2022-08-26T03:26:52.920Z,72.71
2022-08-26T03:29:42.154Z,73.11
2022-08-26T03:32:12.913Z,73.63
2022-08-26T03:34:43.555Z,73.76
2022-08-26T03:37:14.862Z,74.03
2022-08-26T03:39:45.529Z,73.78
2022-08-26T03:42:16.346Z,73.95
2022-08-26T03:44:47.194Z,74.16
2022-08-26T03:47:18.434Z,74.24
2022-08-26T03:49:49.103Z,74.42
2022-08-26T03:52:22.732Z,74.43
2022-08-26T03:54:53.381Z,74.32
2022-08-26T03:57:24.033Z,74.15
2022-08-26T03:59:54.688Z,74.13
2022-08-26T04:02:25.701Z,74.14
2022-08-26T04:04:56.783Z,74.33
2022-08-26T04:07:28.273Z,74.34
2022-08-26T04:10:02.867Z,74.40
2022-08-26T04:12:33.596Z,74.53
2022-08-26T04:15:05.048Z,74.51
2022-08-26T04:17:35.891Z,74.36
2022-08-26T04:20:08.123Z,74.53
2022-08-26T04:22:39.866Z,74.62
2022-08-26T04:25:13.126Z,74.60
2022-08-26T04:27:43.838Z,74.54
2022-08-26T04:30:16.008Z,74.35
2022-08-26T04:32:47.402Z,74.30
2022-08-26T04:35:18.578Z,73.79
2022-08-26T04:37:53.022Z,73.98
2022-08-26T04:40:24.374Z,73.57
2022-08-26T04:42:56.873Z,73.29
2022-08-26T04:45:26.895Z,73.29
2022-08-26T04:47:58.564Z,73.37
2022-08-26T04:50:29.331Z,73.23
2022-08-26T04:53:01.039Z,73.13
2022-08-26T04:55:38.227Z,72.95
2022-08-26T04:58:10.636Z,72.74
2022-08-26T05:00:41.546Z,72.43
2022-08-26T05:03:12.214Z,72.18
2022-08-26T05:05:47.369Z,72.22
2022-08-26T05:08:19.948Z,72.16
2022-08-26T05:10:54.623Z,72.07
2022-08-26T05:13:28.660Z,72.23
2022-08-26T05:16:03.234Z,72.60
2022-08-26T05:18:34.713Z,72.59
2022-08-26T05:21:07.373Z,72.69
2022-08-26T05:23:39.017Z,72.65
2022-08-26T05:26:11.730Z,72.77
2022-08-26T05:28:42.586Z,72.96
2022-08-26T05:31:18.461Z,73.09
2022-08-26T05:33:49.702Z,72.98
2022-08-26T05:36:24.656Z,72.82
2022-08-26T05:38:59.022Z,72.85
2022-08-26T05:41:34.355Z,73.00
2022-08-26T05:44:09.998Z,73.19
2022-08-26T05:46:42.588Z,73.28
2022-08-26T05:49:16.706Z,73.16
2022-08-26T05:51:48.169Z,73.10
2022-08-26T05:54:22.298Z,73.18
2022-08-26T05:56:52.408Z,72.81
2022-08-26T05:59:24.451Z,72.75
2022-08-26T06:01:56.332Z,72.76
2022-08-26T06:04:27.811Z,72.80
2022-08-26T06:07:00.300Z,72.58
2022-08-26T06:09:31.546Z,72.53
2022-08-26T06:12:03.440Z,72.51
2022-08-26T06:14:36.212Z,72.44
2022-08-26T06:17:09.626Z,72.37
2022-08-26T06:19:41.389Z,72.46
2022-08-26T06:22:24.493Z,72.31
2022-08-26T06:25:14.394Z,72.31
2022-08-26T06:27:45.015Z,72.18
2022-08-26T06:30:16.701Z,71.69
2022-08-26T06:32:46.018Z,71.35
2022-08-26T06:35:16.916Z,70.91
2022-08-26T06:37:47.663Z,70.33
2022-08-26T06:40:18.603Z,69.82
2022-08-26T06:42:50.195Z,69.49
2022-08-26T06:45:21.533Z,69.06
2022-08-26T06:47:52.910Z,68.64
2022-08-26T06:50:23.613Z,67.69
2022-08-26T06:52:55.691Z,67.00
2022-08-26T06:55:27.822Z,66.47
2022-08-26T06:57:59.032Z,66.09
2022-08-26T07:00:32.091Z,66.01
2022-08-26T07:03:03.080Z,65.55
2022-08-26T07:05:35.070Z,65.29
2022-08-26T07:08:06.610Z,64.80
2022-08-26T07:10:38.252Z,64.08
2022-08-26T07:13:10.202Z,64.06
2022-08-26T07:15:43.966Z,63.66
2022-08-26T07:18:14.622Z,63.45
2022-08-26T07:20:45.560Z,63.10
2022-08-26T07:23:16.564Z,63.30
2022-08-26T07:25:48.361Z,63.09
2022-08-26T07:28:20.066Z,63.03
2022-08-26T07:30:50.844Z,63.56
2022-08-26T07:33:23.926Z,63.92
2022-08-26T07:35:54.678Z,63.64
2022-08-26T07:38:25.378Z,63.48
2022-08-26T07:40:56.624Z,63.29
2022-08-26T07:43:27.364Z,63.33
2022-08-26T07:46:00.183Z,63.25
2022-08-26T07:48:31.357Z,63.39
2022-08-26T07:51:05.377Z,62.98
2022-08-26T07:53:36.890Z,62.19
2022-08-26T07:56:08.089Z,61.96
2022-08-26T07:58:40.465Z,61.76
2022-08-26T08:01:09.784Z,61.33
2022-08-26T08:03:41.252Z,60.77
2022-08-26T08:06:12.089Z,60.07
2022-08-26T08:08:42.781Z,59.58
2022-08-26T08:11:13.696Z,59.10
2022-08-26T08:13:44.439Z,58.60
2022-08-26T08:16:16.646Z,58.52
2022-08-26T08:18:47.974Z,58.25
2022-08-26T08:21:23.587Z,57.86
2022-08-26T08:23:57.433Z,57.19
2022-08-26T08:26:28.798Z,57.04
2022-08-26T08:28:59.948Z,56.75
2022-08-26T08:31:56.169Z,56.53
2022-08-26T08:34:21.582Z,55.83
2022-08-26T08:36:53.211Z,55.62
2022-08-26T08:39:24.960Z,55.16
2022-08-26T08:42:13.384Z,54.50
2022-08-26T08:44:52.031Z,54.42
2022-08-26T08:47:30.903Z,54.41
2022-08-26T08:50:05.565Z,53.81
2022-08-26T08:52:38.347Z,52.89
2022-08-26T08:55:14.803Z,53.32
2022-08-26T08:58:02.265Z,53.24
2022-08-26T09:00:44.259Z,52.93
2022-08-26T09:03:29.674Z,52.74
2022-08-26T09:06:02.966Z,52.57
2022-08-26T09:08:37.460Z,52.25
2022-08-26T09:11:08.684Z,52.00
2022-08-26T09:13:41.222Z,51.46
2022-08-26T09:16:18.943Z,51.14
2022-08-26T09:19:12.242Z,50.55
2022-08-26T09:21:43.306Z,50.49
2022-08-26T09:24:15.193Z,50.41
2022-08-26T09:26:50.041Z,50.91
2022-08-26T09:29:27.901Z,50.80
2022-08-26T09:32:19.423Z,51.39
2022-08-26T09:35:00.000Z,51.77
2022-08-26T09:40:27.475Z,52.92
2022-08-26T09:43:13.612Z,53.87
2022-08-26T09:45:51.171Z,54.35
2022-08-26T09:48:36.022Z,54.81
2022-08-26T09:51:27.497Z,55.37
2022-08-26T09:54:00.651Z,56.00
2022-08-26T09:56:33.437Z,56.56
2022-08-26T09:59:06.500Z,57.05
2022-08-26T10:01:41.958Z,57.74
2022-08-26T10:04:16.274Z,58.15
2022-08-26T10:07:00.232Z,58.34
2022-08-26T10:09:34.399Z,58.38
2022-08-26T10:12:09.386Z,58.85
2022-08-26T10:14:47.525Z,59.27
2022-08-26T10:17:30.918Z,59.65
2022-08-26T10:20:15.785Z,60.06
2022-08-26T10:23:00.443Z,60.78
2022-08-26T10:25:35.479Z,60.49
2022-08-26T10:28:13.413Z,60.49
2022-08-26T10:30:51.637Z,60.84
2022-08-26T10:33:23.833Z,61.46
2022-08-26T10:35:58.591Z,61.46
2022-08-26T10:38:34.902Z,61.65
2022-08-26T10:41:13.122Z,61.82
2022-08-26T10:43:50.139Z,62.02
2022-08-26T10:46:27.502Z,61.96
2022-08-26T10:49:03.191Z,61.82
2022-08-26T10:51:45.640Z,61.75
2022-08-26T10:54:21.940Z,61.62
2022-08-26T10:57:02.587Z,62.06
2022-08-26T10:59:47.624Z,62.28
2022-08-26T11:02:26.542Z,59.75
2022-08-26T11:04:59.424Z,58.26
2022-08-26T11:07:40.713Z,58.15
2022-08-26T11:10:34.002Z,57.78
2022-08-26T11:13:06.987Z,57.54
2022-08-26T11:16:01.415Z,57.59
2022-08-26T11:18:48.715Z,56.84
2022-08-26T11:22:07.164Z,56.52
2022-08-26T11:24:46.886Z,56.05
2022-08-26T11:27:55.074Z,55.29
2022-08-26T11:30:56.811Z,54.62
2022-08-26T11:33:58.174Z,54.38
2022-08-26T11:36:51.362Z,53.03
2022-08-26T11:39:28.630Z,52.88
2022-08-26T11:42:03.093Z,51.48
2022-08-26T11:44:49.411Z,51.32
2022-08-26T11:47:29.540Z,51.11
2022-08-26T11:50:19.131Z,50.80
2022-08-26T11:53:02.030Z,49.74
2022-08-26T11:55:34.996Z,49.90
2022-08-26T11:58:07.687Z,49.30
2022-08-26T12:00:52.575Z,48.25
2022-08-26T12:03:27.070Z,48.18
2022-08-26T12:05:58.953Z,48.36
2022-08-26T12:08:31.219Z,48.64
2022-08-26T12:11:13.826Z,48.62
2022-08-26T12:13:54.718Z,49.27
2022-08-26T12:16:30.134Z,50.12
2022-08-26T12:19:01.013Z,49.39
2022-08-26T12:21:34.907Z,46.58
2022-08-26T12:24:07.216Z,45.92
2022-08-26T12:26:39.588Z,45.79
2022-08-26T12:29:27.255Z,45.70
2022-08-26T12:32:14.453Z,45.65
2022-08-26T12:34:49.322Z,46.12
2022-08-26T12:37:20.980Z,46.22
2022-08-26T12:39:52.439Z,46.36
2022-08-26T12:42:43.523Z,46.60
2022-08-26T12:45:14.758Z,46.84
2022-08-26T12:47:48.393Z,47.63
2022-08-26T12:50:25.338Z,47.97
2022-08-26T12:53:04.459Z,47.78
2022-08-26T12:55:42.830Z,47.25
2022-08-26T12:58:23.581Z,47.30
2022-08-26T13:00:55.856Z,47.02
2022-08-26T13:03:43.874Z,47.04
2022-08-26T13:06:30.032Z,47.13
2022-08-26T13:09:06.367Z,47.01
2022-08-26T13:11:57.452Z,47.16
2022-08-26T13:14:28.342Z,47.33
2022-08-26T13:16:59.378Z,46.92
2022-08-26T13:19:31.482Z,46.85
2022-08-26T13:22:05.388Z,46.54
2022-08-26T13:24:39.199Z,46.63
2022-08-26T13:27:12.943Z,44.94
2022-08-26T13:29:43.714Z,45.57
2022-08-26T13:32:15.436Z,45.45
2022-08-26T13:34:51.291Z,45.50
2022-08-26T13:37:24.514Z,45.67
2022-08-26T13:40:10.402Z,45.11
2022-08-26T13:42:49.375Z,45.09
2022-08-26T13:45:20.808Z,44.90
2022-08-26T13:47:51.793Z,45.08
2022-08-26T13:50:22.582Z,45.54
2022-08-26T13:52:53.671Z,46.26
2022-08-26T13:55:24.779Z,46.83
2022-08-26T13:57:56.305Z,47.29
2022-08-26T14:00:27.169Z,47.59
2022-08-26T14:02:58.651Z,48.17
2022-08-26T14:05:29.977Z,48.53
2022-08-26T14:08:01.079Z,48.12
2022-08-26T14:10:31.986Z,48.21
2022-08-26T14:13:02.736Z,48.20
2022-08-26T14:15:54.989Z,48.67
2022-08-26T14:18:31.255Z,49.04
2022-08-26T14:21:02.168Z,49.46
2022-08-26T14:23:33.115Z,49.86
2022-08-26T14:26:08.199Z,49.89
2022-08-26T14:28:39.395Z,50.17
2022-08-26T14:31:11.768Z,50.31
2022-08-26T14:33:42.650Z,50.57
2022-08-26T14:36:31.532Z,50.55
2022-08-26T14:39:06.064Z,50.54
2022-08-26T14:41:39.358Z,50.52
2022-08-26T14:44:14.620Z,50.43
2022-08-26T14:46:48.618Z,50.52
2022-08-26T14:49:20.674Z,50.08
2022-08-26T14:51:51.592Z,50.03
2022-08-26T14:54:41.248Z,49.78
2022-08-26T14:57:15.679Z,49.62
2022-08-26T14:59:50.550Z,49.75
2022-08-26T15:02:33.543Z,49.72
2022-08-26T15:05:05.237Z,49.52
2022-08-26T15:07:36.013Z,49.53
2022-08-26T15:10:08.644Z,49.54
2022-08-26T15:12:40.421Z,49.27
2022-08-26T15:15:15.005Z,49.00
2022-08-26T15:17:46.327Z,49.26
2022-08-26T15:20:20.609Z,49.51
2022-08-26T15:22:51.408Z,49.69
2022-08-26T15:25:24.568Z,49.63
2022-08-26T15:27:55.433Z,49.57
2022-08-26T15:30:27.348Z,49.64
2022-08-26T15:32:58.392Z,48.62
2022-08-26T15:35:29.264Z,48.50
2022-08-26T15:38:03.868Z,48.83
2022-08-26T15:40:34.685Z,48.96
2022-08-26T15:43:25.773Z,49.04
2022-08-26T15:45:57.943Z,49.45
2022-08-26T15:48:29.434Z,49.62
2022-08-26T15:51:01.994Z,49.72
2022-08-26T15:53:34.923Z,49.97
2022-08-26T15:56:06.511Z,49.57
2022-08-26T15:58:39.100Z,49.06
2022-08-26T16:01:11.807Z,49.33
2022-08-26T16:03:42.481Z,49.66
2022-08-26T16:06:16.018Z,50.04
2022-08-26T16:08:46.818Z,50.35
2022-08-26T16:11:18.923Z,50.75
2022-08-26T16:13:50.141Z,50.85
2022-08-26T16:16:21.574Z,51.00
2022-08-26T16:18:52.411Z,51.44
2022-08-26T16:21:27.871Z,51.63
2022-08-26T16:23:59.310Z,51.83
2022-08-26T16:26:33.314Z,51.99
2022-08-26T16:29:07.669Z,52.50
2022-08-26T16:31:39.091Z,52.61
2022-08-26T16:34:10.990Z,52.53
2022-08-26T16:36:42.145Z,52.94
2022-08-26T16:39:13.119Z,53.28
2022-08-26T16:41:44.293Z,53.90
2022-08-26T16:44:15.039Z,54.43
2022-08-26T16:46:46.224Z,54.67
2022-08-26T16:49:17.022Z,55.14
2022-08-26T16:51:47.826Z,55.64
2022-08-26T16:54:18.730Z,55.98
2022-08-26T16:56:49.713Z,56.05
2022-08-26T16:59:20.633Z,56.27
2022-08-26T17:01:51.759Z,56.29
2022-08-26T17:04:22.602Z,56.96
2022-08-26T17:06:53.587Z,57.58
2022-08-26T17:09:24.497Z,57.71
2022-08-26T17:11:55.602Z,58.50
2022-08-26T17:14:26.809Z,58.66
2022-08-26T17:16:57.750Z,58.73
2022-08-26T17:19:29.208Z,59.17
2022-08-26T17:22:05.735Z,59.40
2022-08-26T17:24:37.454Z,59.46
2022-08-26T17:27:08.853Z,59.52
2022-08-26T17:29:39.708Z,59.95
2022-08-26T17:32:10.497Z,60.04
2022-08-26T17:34:41.167Z,60.02
2022-08-26T17:37:11.933Z,60.49
2022-08-26T17:39:44.115Z,60.49
2022-08-26T17:42:15.099Z,60.55
2022-08-26T17:44:48.694Z,60.56
2022-08-26T17:47:19.730Z,60.62
2022-08-26T17:49:50.593Z,60.56
2022-08-26T17:52:21.558Z,60.88
2022-08-26T17:54:54.234Z,60.95
2022-08-26T17:57:25.259Z,60.96
2022-08-26T17:59:56.284Z,60.96
2022-08-26T18:02:34.358Z,60.87
2022-08-26T18:05:03.458Z,61.08
2022-08-26T18:07:34.948Z,61.26
2022-08-26T18:10:17.609Z,61.16
2022-08-26T18:12:48.991Z,61.14
2022-08-26T18:15:22.482Z,61.30
2022-08-26T18:17:53.280Z,61.50
2022-08-26T18:20:24.130Z,61.56
2022-08-26T18:22:55.039Z,61.38
2022-08-26T18:25:26.113Z,61.29
2022-08-26T18:27:56.922Z,61.36
2022-08-26T18:30:27.920Z,61.36
2022-08-26T18:32:58.698Z,61.37
2022-08-26T18:35:30.430Z,61.32
2022-08-26T18:38:10.610Z,61.78
2022-08-26T18:40:43.566Z,61.95
2022-08-26T18:43:14.703Z,61.84
2022-08-26T18:45:45.530Z,61.99
2022-08-26T18:48:16.745Z,62.15
2022-08-26T18:50:47.595Z,62.31
2022-08-26T18:53:18.475Z,62.38
2022-08-26T18:55:49.133Z,62.38
2022-08-26T18:58:19.880Z,62.32
2022-08-26T19:00:50.595Z,62.23
2022-08-26T19:03:21.487Z,62.30
2022-08-26T19:05:52.563Z,62.37
2022-08-26T19:08:23.381Z,62.36
2022-08-26T19:10:54.075Z,62.47
2022-08-26T19:13:24.836Z,62.45
2022-08-26T19:15:55.677Z,62.57
2022-08-26T19:18:26.486Z,62.70
2022-08-26T19:20:57.434Z,62.59
2022-08-26T19:23:32.255Z,62.51
2022-08-26T19:26:06.823Z,62.70
2022-08-26T19:28:39.733Z,63.27
2022-08-26T19:31:11.719Z,62.87
2022-08-26T19:33:45.114Z,62.97
2022-08-26T19:36:17.881Z,63.01
2022-08-26T19:38:49.313Z,62.51
2022-08-26T19:41:24.562Z,62.26
2022-08-26T19:43:58.987Z,62.43
2022-08-26T19:46:30.628Z,62.33
2022-08-26T19:49:01.367Z,62.71
2022-08-26T19:51:34.933Z,62.69
2022-08-26T19:54:06.637Z,62.78
2022-08-26T19:56:37.557Z,62.86
2022-08-26T19:59:08.243Z,62.96
2022-08-26T20:01:39.058Z,63.03
2022-08-26T20:04:10.139Z,63.10
2022-08-26T20:06:40.864Z,63.33
2022-08-26T20:09:11.930Z,63.62
2022-08-26T20:11:42.716Z,63.72
2022-08-26T20:14:13.606Z,63.78
2022-08-26T20:16:47.591Z,63.70
2022-08-26T20:19:37.607Z,63.76
2022-08-26T20:22:08.875Z,63.94
2022-08-26T20:24:40.014Z,63.89
2022-08-26T20:27:10.835Z,63.87
2022-08-26T20:29:43.047Z,63.79
2022-08-26T20:32:14.253Z,63.63
2022-08-26T20:34:45.226Z,63.64
2022-08-26T20:37:16.191Z,63.51
2022-08-26T20:39:52.570Z,63.38
2022-08-26T20:42:23.390Z,63.47
2022-08-26T20:44:54.768Z,63.76
2022-08-26T20:47:24.376Z,64.03
2022-08-26T20:49:55.168Z,64.43
2022-08-26T20:52:26.445Z,64.85
2022-08-26T20:54:57.173Z,65.22
2022-08-26T20:57:28.079Z,65.28
2022-08-26T20:59:58.852Z,65.62
2022-08-26T21:02:29.692Z,66.09
2022-08-26T21:05:00.859Z,66.30
2022-08-26T21:07:31.625Z,66.69
2022-08-26T21:10:02.362Z,66.87
2022-08-26T21:12:33.033Z,67.17
2022-08-26T21:15:04.538Z,67.35
2022-08-26T21:17:35.887Z,67.57
2022-08-26T21:20:08.466Z,67.55
2022-08-26T21:22:39.234Z,67.90
2022-08-26T21:25:11.417Z,68.01
2022-08-26T21:27:42.127Z,68.19
2022-08-26T21:30:15.529Z,68.22
2022-08-26T21:32:46.311Z,68.39
2022-08-26T21:35:17.462Z,68.52
2022-08-26T21:37:48.221Z,68.53
2022-08-26T21:40:19.494Z,68.60
2022-08-26T21:42:50.463Z,68.90
2022-08-26T21:45:21.538Z,69.07
2022-08-26T21:47:52.469Z,69.08
2022-08-26T21:50:23.512Z,69.33
2022-08-26T21:52:54.262Z,69.46
2022-08-26T21:55:25.025Z,69.58
2022-08-26T21:57:56.282Z,69.67
2022-08-26T22:00:28.517Z,69.73
2022-08-26T22:03:00.915Z,69.72
2022-08-26T22:05:32.476Z,69.67
2022-08-26T22:08:03.308Z,69.65
2022-08-26T22:10:34.427Z,69.62
2022-08-26T22:13:06.566Z,69.88
2022-08-26T22:15:40.460Z,70.10
2022-08-26T22:18:11.302Z,70.10
2022-08-26T22:20:44.401Z,70.14
2022-08-26T22:23:15.156Z,70.26
2022-08-26T22:25:46.316Z,70.00
2022-08-26T22:28:17.740Z,70.02
2022-08-26T22:30:49.581Z,70.18
2022-08-26T22:33:22.695Z,70.17
2022-08-26T22:35:54.596Z,70.33
2022-08-26T22:38:25.506Z,70.47
2022-08-26T22:40:57.508Z,70.68
2022-08-26T22:43:29.957Z,70.69
2022-08-26T22:46:00.862Z,70.82
2022-08-26T22:48:31.787Z,71.01
2022-08-26T22:51:02.534Z,71.14
2022-08-26T22:53:35.855Z,71.10
2022-08-26T22:56:09.858Z,71.10
2022-08-26T22:58:40.614Z,71.00
2022-08-26T23:01:11.450Z,71.03
2022-08-26T23:03:42.413Z,71.01
2022-08-26T23:06:13.614Z,71.04
2022-08-26T23:08:47.532Z,70.98
2022-08-26T23:11:19.199Z,71.16
2022-08-26T23:13:50.424Z,71.05
2022-08-26T23:16:21.451Z,71.14
2022-08-26T23:18:52.283Z,71.17
2022-08-26T23:21:25.517Z,71.07
2022-08-26T23:23:56.409Z,70.76
2022-08-26T23:26:27.231Z,70.59
2022-08-26T23:28:58.514Z,70.51
2022-08-26T23:31:29.447Z,70.41
2022-08-26T23:34:18.275Z,70.34
2022-08-26T23:36:49.322Z,70.30
2022-08-26T23:39:26.380Z,70.32
2022-08-26T23:41:58.175Z,70.34
2022-08-26T23:44:30.544Z,70.39
2022-08-26T23:47:02.375Z,70.42
2022-08-26T23:49:33.884Z,70.48
2022-08-26T23:52:24.231Z,70.43
2022-08-26T23:54:55.634Z,70.52
2022-08-26T23:57:28.759Z,70.64
2022-08-26T23:59:59.574Z,70.81
